Wastedo, Minnesota
Current Conditions -  °F | °C
As of 2:34 AM on Friday 28 Nov 2014 (Local Time) from KSYN Reporting Station
Light Snow Light Snow  
Wind Chill: -18°   Ceiling: 1400
Heat Index: -12°   Visibility: 2mi
Dew Point: -14°   Wind: 8mph
Humidity: 81%   Direction: 120°ESE
Pressure: 30.14"   Gusts: NA
Location:  44.4763°N, 92.8054°W
Report Text: KSYN 280834Z AUTO 12007KT 2SM -SN SCT007 BKN014 OVC060 M11/M14 A3014 RMK AO2 VIS 1 3/4V5 T11151142
Loading
Personal Weather Stations






























Interactive Weather Map New forecast layout! Learn more

10-Day Weather Forecast

Advertisements
Track Severe Weather on mobile